sensor_id;sensor_type;location;lat;lon;timestamp;P1;durP1;ratioP1;P2;durP2;ratioP2
10469;SDS011;5282;47.052;15.458;2023-07-30T00:00:36;1.47;;;1.40;;
10469;SDS011;5282;47.052;15.458;2023-07-30T00:03:03;1.40;;;1.40;;
10469;SDS011;5282;47.052;15.458;2023-07-30T00:05:30;1.30;;;1.30;;
10469;SDS011;5282;47.052;15.458;2023-07-30T00:07:57;1.40;;;1.33;;
10469;SDS011;5282;47.052;15.458;2023-07-30T00:10:24;1.37;;;1.30;;
10469;SDS011;5282;47.052;15.458;2023-07-30T00:12:52;1.23;;;1.23;;
10469;SDS011;5282;47.052;15.458;2023-07-30T00:15:19;1.30;;;1.30;;
10469;SDS011;5282;47.052;15.458;2023-07-30T00:17:46;1.50;;;1.40;;
10469;SDS011;5282;47.052;15.458;2023-07-30T00:20:13;1.60;;;1.60;;
10469;SDS011;5282;47.052;15.458;2023-07-30T00:22:40;2.60;;;2.50;;
10469;SDS011;5282;47.052;15.458;2023-07-30T00:25:07;2.20;;;2.10;;
10469;SDS011;5282;47.052;15.458;2023-07-30T00:27:35;1.90;;;1.80;;
10469;SDS011;5282;47.052;15.458;2023-07-30T00:30:03;1.60;;;1.50;;
10469;SDS011;5282;47.052;15.458;2023-07-30T00:32:32;1.50;;;1.50;;
10469;SDS011;5282;47.052;15.458;2023-07-30T00:34:59;1.30;;;1.30;;
10469;SDS011;5282;47.052;15.458;2023-07-30T00:37:25;1.47;;;1.47;;
10469;SDS011;5282;47.052;15.458;2023-07-30T00:39:53;1.40;;;1.40;;
10469;SDS011;5282;47.052;15.458;2023-07-30T00:42:19;1.60;;;1.50;;
10469;SDS011;5282;47.052;15.458;2023-07-30T00:44:46;1.67;;;1.57;;
10469;SDS011;5282;47.052;15.458;2023-07-30T00:47:14;1.40;;;1.40;;
10469;SDS011;5282;47.052;15.458;2023-07-30T00:49:41;1.57;;;1.57;;
10469;SDS011;5282;47.052;15.458;2023-07-30T00:52:08;1.73;;;1.63;;
10469;SDS011;5282;47.052;15.458;2023-07-30T00:54:37;1.50;;;1.40;;
10469;SDS011;5282;47.052;15.458;2023-07-30T00:57:05;1.40;;;1.40;;
10469;SDS011;5282;47.052;15.458;2023-07-30T00:59:33;1.40;;;1.40;;
10469;SDS011;5282;47.052;15.458;2023-07-30T01:02:00;1.40;;;1.30;;
10469;SDS011;5282;47.052;15.458;2023-07-30T01:04:30;2.10;;;1.60;;
10469;SDS011;5282;47.052;15.458;2023-07-30T01:07:01;1.53;;;1.43;;
10469;SDS011;5282;47.052;15.458;2023-07-30T01:09:32;1.40;;;1.30;;
10469;SDS011;5282;47.052;15.458;2023-07-30T01:12:01;1.30;;;1.30;;
10469;SDS011;5282;47.052;15.458;2023-07-30T01:14:28;1.40;;;1.40;;
10469;SDS011;5282;47.052;15.458;2023-07-30T01:16:57;1.70;;;1.60;;
10469;SDS011;5282;47.052;15.458;2023-07-30T01:19:24;1.43;;;1.43;;
10469;SDS011;5282;47.052;15.458;2023-07-30T01:21:53;1.87;;;1.83;;
10469;SDS011;5282;47.052;15.458;2023-07-30T01:24:20;1.43;;;1.33;;
10469;SDS011;5282;47.052;15.458;2023-07-30T01:26:48;1.70;;;1.70;;
10469;SDS011;5282;47.052;15.458;2023-07-30T01:29:21;2.00;;;1.90;;
10469;SDS011;5282;47.052;15.458;2023-07-30T01:31:52;1.67;;;1.57;;
10469;SDS011;5282;47.052;15.458;2023-07-30T01:34:22;1.80;;;1.70;;
10469;SDS011;5282;47.052;15.458;2023-07-30T01:36:51;1.60;;;1.60;;
10469;SDS011;5282;47.052;15.458;2023-07-30T01:39:20;1.50;;;1.50;;
10469;SDS011;5282;47.052;15.458;2023-07-30T01:41:47;2.07;;;1.97;;
10469;SDS011;5282;47.052;15.458;2023-07-30T01:44:14;1.67;;;1.67;;
10469;SDS011;5282;47.052;15.458;2023-07-30T01:46:41;1.60;;;1.60;;
10469;SDS011;5282;47.052;15.458;2023-07-30T01:49:08;2.07;;;1.97;;
10469;SDS011;5282;47.052;15.458;2023-07-30T01:51:35;2.00;;;1.90;;
10469;SDS011;5282;47.052;15.458;2023-07-30T01:54:03;1.80;;;1.70;;
10469;SDS011;5282;47.052;15.458;2023-07-30T01:56:30;2.30;;;2.10;;
10469;SDS011;5282;47.052;15.458;2023-07-30T01:58:57;1.90;;;1.83;;
10469;SDS011;5282;47.052;15.458;2023-07-30T02:01:23;1.93;;;1.87;;
10469;SDS011;5282;47.052;15.458;2023-07-30T02:03:50;2.00;;;1.90;;
10469;SDS011;5282;47.052;15.458;2023-07-30T02:06:17;2.07;;;1.97;;
10469;SDS011;5282;47.052;15.458;2023-07-30T02:08:44;1.60;;;1.60;;
10469;SDS011;5282;47.052;15.458;2023-07-30T02:11:12;1.70;;;1.70;;
10469;SDS011;5282;47.052;15.458;2023-07-30T02:13:39;2.10;;;2.10;;
10469;SDS011;5282;47.052;15.458;2023-07-30T02:16:07;1.70;;;1.70;;
10469;SDS011;5282;47.052;15.458;2023-07-30T02:18:36;2.13;;;2.03;;
10469;SDS011;5282;47.052;15.458;2023-07-30T02:21:07;1.97;;;1.80;;
10469;SDS011;5282;47.052;15.458;2023-07-30T02:23:34;1.60;;;1.60;;
10469;SDS011;5282;47.052;15.458;2023-07-30T02:26:01;1.70;;;1.70;;
10469;SDS011;5282;47.052;15.458;2023-07-30T02:28:29;1.60;;;1.60;;
10469;SDS011;5282;47.052;15.458;2023-07-30T02:30:58;2.83;;;1.90;;
10469;SDS011;5282;47.052;15.458;2023-07-30T02:33:27;1.77;;;1.77;;
10469;SDS011;5282;47.052;15.458;2023-07-30T02:35:54;1.77;;;1.77;;
10469;SDS011;5282;47.052;15.458;2023-07-30T02:38:21;1.70;;;1.70;;
10469;SDS011;5282;47.052;15.458;2023-07-30T02:40:48;1.80;;;1.70;;
10469;SDS011;5282;47.052;15.458;2023-07-30T02:43:15;1.80;;;1.80;;
10469;SDS011;5282;47.052;15.458;2023-07-30T02:45:43;1.80;;;1.70;;
10469;SDS011;5282;47.052;15.458;2023-07-30T02:48:13;1.90;;;1.80;;
10469;SDS011;5282;47.052;15.458;2023-07-30T02:50:40;1.53;;;1.53;;
10469;SDS011;5282;47.052;15.458;2023-07-30T02:53:07;1.90;;;1.77;;
10469;SDS011;5282;47.052;15.458;2023-07-30T02:55:35;1.80;;;1.70;;
10469;SDS011;5282;47.052;15.458;2023-07-30T02:58:02;1.93;;;1.83;;
10469;SDS011;5282;47.052;15.458;2023-07-30T03:00:29;1.70;;;1.70;;
10469;SDS011;5282;47.052;15.458;2023-07-30T03:02:57;1.93;;;1.83;;
10469;SDS011;5282;47.052;15.458;2023-07-30T03:05:23;1.93;;;1.83;;
10469;SDS011;5282;47.052;15.458;2023-07-30T03:07:52;2.00;;;1.90;;
10469;SDS011;5282;47.052;15.458;2023-07-30T03:10:19;1.90;;;1.90;;
10469;SDS011;5282;47.052;15.458;2023-07-30T03:12:46;2.27;;;1.90;;
10469;SDS011;5282;47.052;15.458;2023-07-30T03:15:13;2.00;;;2.00;;
10469;SDS011;5282;47.052;15.458;2023-07-30T03:17:40;1.80;;;1.70;;
10469;SDS011;5282;47.052;15.458;2023-07-30T03:20:09;2.27;;;2.17;;
10469;SDS011;5282;47.052;15.458;2023-07-30T03:22:36;2.60;;;1.70;;
10469;SDS011;5282;47.052;15.458;2023-07-30T03:25:03;2.23;;;2.10;;
10469;SDS011;5282;47.052;15.458;2023-07-30T03:27:30;1.70;;;1.70;;
10469;SDS011;5282;47.052;15.458;2023-07-30T03:29:57;2.10;;;2.00;;
10469;SDS011;5282;47.052;15.458;2023-07-30T03:32:24;2.00;;;1.90;;
10469;SDS011;5282;47.052;15.458;2023-07-30T03:34:51;1.70;;;1.70;;
10469;SDS011;5282;47.052;15.458;2023-07-30T03:37:19;2.10;;;2.00;;
10469;SDS011;5282;47.052;15.458;2023-07-30T03:39:46;2.17;;;2.10;;
10469;SDS011;5282;47.052;15.458;2023-07-30T03:42:13;2.13;;;2.13;;
10469;SDS011;5282;47.052;15.458;2023-07-30T03:44:40;2.20;;;2.10;;
10469;SDS011;5282;47.052;15.458;2023-07-30T03:47:07;2.10;;;2.00;;
10469;SDS011;5282;47.052;15.458;2023-07-30T03:49:34;2.10;;;1.90;;
10469;SDS011;5282;47.052;15.458;2023-07-30T03:52:00;2.20;;;2.10;;
10469;SDS011;5282;47.052;15.458;2023-07-30T03:54:31;2.33;;;2.30;;
10469;SDS011;5282;47.052;15.458;2023-07-30T03:56:58;2.03;;;2.03;;
10469;SDS011;5282;47.052;15.458;2023-07-30T03:59:25;2.40;;;2.20;;
10469;SDS011;5282;47.052;15.458;2023-07-30T04:01:53;2.30;;;2.10;;
10469;SDS011;5282;47.052;15.458;2023-07-30T04:04:20;1.87;;;1.77;;
10469;SDS011;5282;47.052;15.458;2023-07-30T04:06:47;2.10;;;2.00;;
10469;SDS011;5282;47.052;15.458;2023-07-30T04:09:14;2.10;;;2.00;;
10469;SDS011;5282;47.052;15.458;2023-07-30T04:11:42;2.10;;;2.00;;
10469;SDS011;5282;47.052;15.458;2023-07-30T04:14:09;1.70;;;1.70;;
10469;SDS011;5282;47.052;15.458;2023-07-30T04:16:38;2.00;;;1.90;;
10469;SDS011;5282;47.052;15.458;2023-07-30T04:19:05;2.13;;;2.03;;
10469;SDS011;5282;47.052;15.458;2023-07-30T04:21:32;1.80;;;1.80;;
10469;SDS011;5282;47.052;15.458;2023-07-30T04:23:59;2.33;;;2.23;;
10469;SDS011;5282;47.052;15.458;2023-07-30T04:26:27;2.30;;;2.20;;
10469;SDS011;5282;47.052;15.458;2023-07-30T04:28:56;2.10;;;2.00;;
10469;SDS011;5282;47.052;15.458;2023-07-30T04:31:23;2.20;;;2.10;;
10469;SDS011;5282;47.052;15.458;2023-07-30T04:33:49;1.93;;;1.83;;
10469;SDS011;5282;47.052;15.458;2023-07-30T04:36:16;2.50;;;2.40;;
10469;SDS011;5282;47.052;15.458;2023-07-30T04:38:43;2.53;;;2.43;;
10469;SDS011;5282;47.052;15.458;2023-07-30T04:41:10;2.43;;;2.33;;
10469;SDS011;5282;47.052;15.458;2023-07-30T04:43:37;2.30;;;2.20;;
10469;SDS011;5282;47.052;15.458;2023-07-30T04:46:05;2.03;;;2.03;;
10469;SDS011;5282;47.052;15.458;2023-07-30T04:48:32;2.20;;;2.07;;
10469;SDS011;5282;47.052;15.458;2023-07-30T04:51:02;2.40;;;2.30;;
10469;SDS011;5282;47.052;15.458;2023-07-30T04:53:29;2.27;;;2.17;;
10469;SDS011;5282;47.052;15.458;2023-07-30T04:55:56;2.23;;;2.17;;
10469;SDS011;5282;47.052;15.458;2023-07-30T04:58:23;2.47;;;2.37;;
10469;SDS011;5282;47.052;15.458;2023-07-30T05:00:50;2.50;;;2.20;;
10469;SDS011;5282;47.052;15.458;2023-07-30T05:03:18;2.47;;;2.33;;
10469;SDS011;5282;47.052;15.458;2023-07-30T05:05:45;2.30;;;2.20;;
10469;SDS011;5282;47.052;15.458;2023-07-30T05:08:12;2.60;;;2.50;;
10469;SDS011;5282;47.052;15.458;2023-07-30T05:10:41;2.50;;;2.40;;
10469;SDS011;5282;47.052;15.458;2023-07-30T05:13:07;2.07;;;1.97;;
10469;SDS011;5282;47.052;15.458;2023-07-30T05:15:34;2.50;;;2.40;;
10469;SDS011;5282;47.052;15.458;2023-07-30T05:18:04;2.10;;;2.00;;
10469;SDS011;5282;47.052;15.458;2023-07-30T05:20:32;2.10;;;2.00;;
10469;SDS011;5282;47.052;15.458;2023-07-30T05:22:59;2.23;;;2.13;;
10469;SDS011;5282;47.052;15.458;2023-07-30T05:25:27;2.20;;;2.10;;
10469;SDS011;5282;47.052;15.458;2023-07-30T05:27:55;2.20;;;2.10;;
10469;SDS011;5282;47.052;15.458;2023-07-30T05:30:21;2.30;;;2.20;;
10469;SDS011;5282;47.052;15.458;2023-07-30T05:32:48;2.50;;;2.30;;
10469;SDS011;5282;47.052;15.458;2023-07-30T05:35:15;2.50;;;2.40;;
10469;SDS011;5282;47.052;15.458;2023-07-30T05:37:45;2.50;;;2.30;;
10469;SDS011;5282;47.052;15.458;2023-07-30T05:40:12;2.27;;;2.10;;
10469;SDS011;5282;47.052;15.458;2023-07-30T05:42:39;2.40;;;2.30;;
10469;SDS011;5282;47.052;15.458;2023-07-30T05:45:08;2.07;;;2.07;;
10469;SDS011;5282;47.052;15.458;2023-07-30T05:47:36;1.90;;;1.90;;
10469;SDS011;5282;47.052;15.458;2023-07-30T05:50:03;2.33;;;2.33;;
10469;SDS011;5282;47.052;15.458;2023-07-30T05:52:30;2.43;;;2.30;;
10469;SDS011;5282;47.052;15.458;2023-07-30T05:55:01;2.40;;;2.30;;
10469;SDS011;5282;47.052;15.458;2023-07-30T05:57:30;2.27;;;2.27;;
10469;SDS011;5282;47.052;15.458;2023-07-30T05:59:57;2.20;;;2.20;;
10469;SDS011;5282;47.052;15.458;2023-07-30T06:02:24;2.30;;;2.20;;
10469;SDS011;5282;47.052;15.458;2023-07-30T06:04:51;2.40;;;2.30;;
10469;SDS011;5282;47.052;15.458;2023-07-30T06:07:18;2.70;;;2.50;;
10469;SDS011;5282;47.052;15.458;2023-07-30T06:09:44;2.50;;;2.40;;
10469;SDS011;5282;47.052;15.458;2023-07-30T06:12:12;2.47;;;2.37;;
10469;SDS011;5282;47.052;15.458;2023-07-30T06:14:39;2.77;;;2.60;;
10469;SDS011;5282;47.052;15.458;2023-07-30T06:17:06;2.90;;;2.80;;
10469;SDS011;5282;47.052;15.458;2023-07-30T06:19:33;2.60;;;2.50;;
10469;SDS011;5282;47.052;15.458;2023-07-30T06:22:00;3.00;;;2.90;;
10469;SDS011;5282;47.052;15.458;2023-07-30T06:24:26;3.60;;;3.30;;
10469;SDS011;5282;47.052;15.458;2023-07-30T06:26:53;3.27;;;3.17;;
10469;SDS011;5282;47.052;15.458;2023-07-30T06:29:22;3.53;;;3.30;;
10469;SDS011;5282;47.052;15.458;2023-07-30T06:31:50;3.37;;;3.20;;
10469;SDS011;5282;47.052;15.458;2023-07-30T06:34:17;3.20;;;2.97;;
10469;SDS011;5282;47.052;15.458;2023-07-30T06:36:43;5.87;;;2.77;;
10469;SDS011;5282;47.052;15.458;2023-07-30T06:39:10;2.67;;;2.57;;
10469;SDS011;5282;47.052;15.458;2023-07-30T06:41:37;3.00;;;2.70;;
10469;SDS011;5282;47.052;15.458;2023-07-30T06:44:04;2.47;;;2.37;;
10469;SDS011;5282;47.052;15.458;2023-07-30T06:46:32;2.70;;;2.50;;
10469;SDS011;5282;47.052;15.458;2023-07-30T06:48:59;2.37;;;2.27;;
10469;SDS011;5282;47.052;15.458;2023-07-30T06:51:26;2.20;;;2.10;;
10469;SDS011;5282;47.052;15.458;2023-07-30T06:53:53;2.30;;;2.20;;
10469;SDS011;5282;47.052;15.458;2023-07-30T06:56:20;2.17;;;2.17;;
10469;SDS011;5282;47.052;15.458;2023-07-30T06:58:46;3.13;;;2.20;;
10469;SDS011;5282;47.052;15.458;2023-07-30T07:01:13;2.67;;;2.47;;
10469;SDS011;5282;47.052;15.458;2023-07-30T07:03:42;2.50;;;2.40;;
10469;SDS011;5282;47.052;15.458;2023-07-30T07:06:08;2.40;;;2.30;;
10469;SDS011;5282;47.052;15.458;2023-07-30T07:08:35;2.40;;;2.30;;
10469;SDS011;5282;47.052;15.458;2023-07-30T07:11:02;2.63;;;2.53;;
10469;SDS011;5282;47.052;15.458;2023-07-30T07:13:29;2.70;;;2.40;;
10469;SDS011;5282;47.052;15.458;2023-07-30T07:15:56;2.50;;;2.40;;
10469;SDS011;5282;47.052;15.458;2023-07-30T07:18:23;2.47;;;2.37;;
10469;SDS011;5282;47.052;15.458;2023-07-30T07:20:51;2.47;;;2.37;;
10469;SDS011;5282;47.052;15.458;2023-07-30T07:23:18;2.50;;;2.37;;
10469;SDS011;5282;47.052;15.458;2023-07-30T07:25:44;2.40;;;2.30;;
10469;SDS011;5282;47.052;15.458;2023-07-30T07:28:12;2.37;;;2.27;;
10469;SDS011;5282;47.052;15.458;2023-07-30T07:30:38;2.50;;;2.40;;
10469;SDS011;5282;47.052;15.458;2023-07-30T07:33:05;2.30;;;2.20;;
10469;SDS011;5282;47.052;15.458;2023-07-30T07:35:34;2.10;;;2.10;;
10469;SDS011;5282;47.052;15.458;2023-07-30T07:38:02;2.37;;;2.27;;
10469;SDS011;5282;47.052;15.458;2023-07-30T07:40:35;2.17;;;2.13;;
10469;SDS011;5282;47.052;15.458;2023-07-30T07:43:07;2.37;;;2.27;;
10469;SDS011;5282;47.052;15.458;2023-07-30T07:45:34;2.70;;;2.60;;
10469;SDS011;5282;47.052;15.458;2023-07-30T07:48:01;2.67;;;2.53;;
10469;SDS011;5282;47.052;15.458;2023-07-30T07:50:28;2.70;;;2.60;;
10469;SDS011;5282;47.052;15.458;2023-07-30T07:52:55;2.57;;;2.47;;
10469;SDS011;5282;47.052;15.458;2023-07-30T07:55:23;2.40;;;2.30;;
10469;SDS011;5282;47.052;15.458;2023-07-30T07:57:50;2.30;;;2.20;;
10469;SDS011;5282;47.052;15.458;2023-07-30T08:00:17;2.70;;;2.50;;
10469;SDS011;5282;47.052;15.458;2023-07-30T08:02:44;2.27;;;2.17;;
10469;SDS011;5282;47.052;15.458;2023-07-30T08:05:11;2.23;;;2.13;;
10469;SDS011;5282;47.052;15.458;2023-07-30T08:07:38;2.40;;;2.30;;
10469;SDS011;5282;47.052;15.458;2023-07-30T08:10:05;3.43;;;2.50;;
10469;SDS011;5282;47.052;15.458;2023-07-30T08:12:34;2.40;;;2.30;;
10469;SDS011;5282;47.052;15.458;2023-07-30T08:15:04;2.20;;;2.10;;
10469;SDS011;5282;47.052;15.458;2023-07-30T08:17:32;2.20;;;2.20;;
10469;SDS011;5282;47.052;15.458;2023-07-30T08:19:59;1.90;;;1.90;;
10469;SDS011;5282;47.052;15.458;2023-07-30T08:22:25;2.33;;;2.23;;
10469;SDS011;5282;47.052;15.458;2023-07-30T08:24:55;2.40;;;2.20;;
10469;SDS011;5282;47.052;15.458;2023-07-30T08:27:22;2.17;;;2.17;;
10469;SDS011;5282;47.052;15.458;2023-07-30T08:29:50;2.40;;;2.30;;
10469;SDS011;5282;47.052;15.458;2023-07-30T08:32:17;2.13;;;2.10;;
10469;SDS011;5282;47.052;15.458;2023-07-30T08:34:44;2.23;;;2.23;;
10469;SDS011;5282;47.052;15.458;2023-07-30T08:37:10;1.97;;;1.97;;
10469;SDS011;5282;47.052;15.458;2023-07-30T08:39:37;1.80;;;1.80;;
10469;SDS011;5282;47.052;15.458;2023-07-30T08:42:04;2.27;;;2.17;;
10469;SDS011;5282;47.052;15.458;2023-07-30T08:44:31;2.10;;;1.93;;
10469;SDS011;5282;47.052;15.458;2023-07-30T08:46:59;2.30;;;2.20;;
10469;SDS011;5282;47.052;15.458;2023-07-30T08:49:26;2.20;;;2.10;;
10469;SDS011;5282;47.052;15.458;2023-07-30T08:51:58;2.20;;;1.87;;
10469;SDS011;5282;47.052;15.458;2023-07-30T08:54:25;2.00;;;1.90;;
10469;SDS011;5282;47.052;15.458;2023-07-30T08:56:55;1.83;;;1.83;;
10469;SDS011;5282;47.052;15.458;2023-07-30T08:59:23;2.20;;;2.10;;
10469;SDS011;5282;47.052;15.458;2023-07-30T09:01:51;2.10;;;2.00;;
10469;SDS011;5282;47.052;15.458;2023-07-30T09:04:21;2.00;;;2.00;;
10469;SDS011;5282;47.052;15.458;2023-07-30T09:06:48;2.00;;;1.90;;
10469;SDS011;5282;47.052;15.458;2023-07-30T09:09:16;2.25;;;2.15;;
10469;SDS011;5282;47.052;15.458;2023-07-30T09:11:43;1.90;;;1.90;;
10469;SDS011;5282;47.052;15.458;2023-07-30T09:14:09;2.00;;;1.90;;
10469;SDS011;5282;47.052;15.458;2023-07-30T09:16:36;1.58;;;1.58;;
10469;SDS011;5282;47.052;15.458;2023-07-30T09:19:03;2.00;;;2.00;;
10469;SDS011;5282;47.052;15.458;2023-07-30T09:21:34;1.93;;;1.90;;
10469;SDS011;5282;47.052;15.458;2023-07-30T09:24:01;1.80;;;1.70;;
10469;SDS011;5282;47.052;15.458;2023-07-30T09:26:38;1.77;;;1.67;;
10469;SDS011;5282;47.052;15.458;2023-07-30T09:29:08;1.70;;;1.70;;
10469;SDS011;5282;47.052;15.458;2023-07-30T09:31:43;1.60;;;1.60;;
10469;SDS011;5282;47.052;15.458;2023-07-30T09:34:14;1.38;;;1.38;;
10469;SDS011;5282;47.052;15.458;2023-07-30T09:36:44;1.52;;;1.42;;
10469;SDS011;5282;47.052;15.458;2023-07-30T09:39:15;1.67;;;1.55;;
10469;SDS011;5282;47.052;15.458;2023-07-30T09:41:43;1.10;;;1.10;;
10469;SDS011;5282;47.052;15.458;2023-07-30T09:44:11;1.30;;;1.30;;
10469;SDS011;5282;47.052;15.458;2023-07-30T09:46:44;1.50;;;1.50;;
10469;SDS011;5282;47.052;15.458;2023-07-30T09:49:12;1.15;;;1.15;;
10469;SDS011;5282;47.052;15.458;2023-07-30T09:51:40;1.10;;;1.10;;
10469;SDS011;5282;47.052;15.458;2023-07-30T09:54:08;1.13;;;1.13;;
10469;SDS011;5282;47.052;15.458;2023-07-30T09:56:37;0.93;;;0.93;;
10469;SDS011;5282;47.052;15.458;2023-07-30T09:59:05;0.88;;;0.88;;
10469;SDS011;5282;47.052;15.458;2023-07-30T10:01:32;1.08;;;1.08;;
10469;SDS011;5282;47.052;15.458;2023-07-30T10:04:07;1.02;;;1.02;;
10469;SDS011;5282;47.052;15.458;2023-07-30T10:06:35;1.10;;;1.10;;
10469;SDS011;5282;47.052;15.458;2023-07-30T10:09:05;1.10;;;1.10;;
10469;SDS011;5282;47.052;15.458;2023-07-30T10:11:37;0.88;;;0.88;;
10469;SDS011;5282;47.052;15.458;2023-07-30T10:14:06;1.10;;;1.10;;
10469;SDS011;5282;47.052;15.458;2023-07-30T10:16:33;1.13;;;1.13;;
10469;SDS011;5282;47.052;15.458;2023-07-30T10:19:00;1.05;;;1.05;;
10469;SDS011;5282;47.052;15.458;2023-07-30T10:21:28;1.10;;;1.10;;
10469;SDS011;5282;47.052;15.458;2023-07-30T10:24:01;1.02;;;1.02;;
10469;SDS011;5282;47.052;15.458;2023-07-30T10:26:31;1.23;;;1.23;;
10469;SDS011;5282;47.052;15.458;2023-07-30T10:29:14;1.10;;;1.00;;
10469;SDS011;5282;47.052;15.458;2023-07-30T10:31:42;1.40;;;1.40;;
10469;SDS011;5282;47.052;15.458;2023-07-30T10:34:10;1.02;;;1.02;;
10469;SDS011;5282;47.052;15.458;2023-07-30T10:36:40;1.00;;;1.00;;
10469;SDS011;5282;47.052;15.458;2023-07-30T10:39:13;2.38;;;1.15;;
10469;SDS011;5282;47.052;15.458;2023-07-30T10:41:43;1.20;;;1.20;;
10469;SDS011;5282;47.052;15.458;2023-07-30T10:44:18;0.98;;;0.98;;
10469;SDS011;5282;47.052;15.458;2023-07-30T10:46:49;0.90;;;0.90;;
10469;SDS011;5282;47.052;15.458;2023-07-30T10:49:16;1.10;;;1.10;;
10469;SDS011;5282;47.052;15.458;2023-07-30T10:51:43;1.10;;;1.10;;
10469;SDS011;5282;47.052;15.458;2023-07-30T10:54:10;1.10;;;1.10;;
10469;SDS011;5282;47.052;15.458;2023-07-30T10:56:37;1.10;;;1.10;;
10469;SDS011;5282;47.052;15.458;2023-07-30T10:59:07;0.95;;;0.95;;
10469;SDS011;5282;47.052;15.458;2023-07-30T11:01:38;1.08;;;1.08;;
10469;SDS011;5282;47.052;15.458;2023-07-30T11:04:06;1.27;;;1.27;;
10469;SDS011;5282;47.052;15.458;2023-07-30T11:06:36;1.02;;;1.02;;
10469;SDS011;5282;47.052;15.458;2023-07-30T11:09:03;1.00;;;1.00;;
10469;SDS011;5282;47.052;15.458;2023-07-30T11:11:30;1.10;;;1.10;;
10469;SDS011;5282;47.052;15.458;2023-07-30T11:13:58;1.00;;;1.00;;
10469;SDS011;5282;47.052;15.458;2023-07-30T11:16:26;0.90;;;0.90;;
10469;SDS011;5282;47.052;15.458;2023-07-30T11:18:53;1.10;;;1.10;;
10469;SDS011;5282;47.052;15.458;2023-07-30T11:21:20;0.98;;;0.98;;
10469;SDS011;5282;47.052;15.458;2023-07-30T11:23:47;1.10;;;1.10;;
10469;SDS011;5282;47.052;15.458;2023-07-30T11:26:14;0.98;;;0.98;;
10469;SDS011;5282;47.052;15.458;2023-07-30T11:28:43;0.82;;;0.82;;
10469;SDS011;5282;47.052;15.458;2023-07-30T11:31:11;1.10;;;1.10;;
10469;SDS011;5282;47.052;15.458;2023-07-30T11:33:41;1.00;;;1.00;;
10469;SDS011;5282;47.052;15.458;2023-07-30T11:36:10;1.25;;;1.20;;
10469;SDS011;5282;47.052;15.458;2023-07-30T11:38:39;1.10;;;1.10;;
10469;SDS011;5282;47.052;15.458;2023-07-30T11:41:07;1.10;;;1.10;;
10469;SDS011;5282;47.052;15.458;2023-07-30T11:43:37;1.20;;;1.20;;
10469;SDS011;5282;47.052;15.458;2023-07-30T11:46:08;1.30;;;1.30;;
10469;SDS011;5282;47.052;15.458;2023-07-30T11:48:41;1.10;;;1.10;;
10469;SDS011;5282;47.052;15.458;2023-07-30T11:51:19;1.50;;;1.40;;
10469;SDS011;5282;47.052;15.458;2023-07-30T11:53:48;1.20;;;1.20;;
10469;SDS011;5282;47.052;15.458;2023-07-30T11:56:20;1.15;;;1.15;;
10469;SDS011;5282;47.052;15.458;2023-07-30T11:58:50;1.38;;;1.38;;
10469;SDS011;5282;47.052;15.458;2023-07-30T12:01:19;1.05;;;1.05;;
10469;SDS011;5282;47.052;15.458;2023-07-30T12:03:47;1.30;;;1.30;;
10469;SDS011;5282;47.052;15.458;2023-07-30T12:06:14;1.40;;;1.40;;
10469;SDS011;5282;47.052;15.458;2023-07-30T12:08:41;1.08;;;1.08;;
10469;SDS011;5282;47.052;15.458;2023-07-30T12:11:09;1.30;;;1.30;;
10469;SDS011;5282;47.052;15.458;2023-07-30T12:13:42;1.33;;;1.23;;
10469;SDS011;5282;47.052;15.458;2023-07-30T12:16:10;1.40;;;1.40;;
10469;SDS011;5282;47.052;15.458;2023-07-30T12:18:38;1.25;;;1.25;;
10469;SDS011;5282;47.052;15.458;2023-07-30T12:21:07;1.30;;;1.30;;
10469;SDS011;5282;47.052;15.458;2023-07-30T12:23:36;1.35;;;1.35;;
10469;SDS011;5282;47.052;15.458;2023-07-30T12:26:06;1.10;;;1.10;;
10469;SDS011;5282;47.052;15.458;2023-07-30T12:28:33;1.10;;;1.10;;
10469;SDS011;5282;47.052;15.458;2023-07-30T12:31:00;1.00;;;1.00;;
10469;SDS011;5282;47.052;15.458;2023-07-30T12:33:27;1.30;;;1.30;;
10469;SDS011;5282;47.052;15.458;2023-07-30T12:35:54;1.27;;;1.27;;
10469;SDS011;5282;47.052;15.458;2023-07-30T12:38:22;1.40;;;1.40;;
10469;SDS011;5282;47.052;15.458;2023-07-30T12:40:49;1.10;;;1.10;;
10469;SDS011;5282;47.052;15.458;2023-07-30T12:43:16;1.23;;;1.23;;
10469;SDS011;5282;47.052;15.458;2023-07-30T12:45:45;1.15;;;1.15;;
10469;SDS011;5282;47.052;15.458;2023-07-30T12:48:12;1.17;;;1.17;;
10469;SDS011;5282;47.052;15.458;2023-07-30T12:50:39;1.40;;;1.40;;
10469;SDS011;5282;47.052;15.458;2023-07-30T12:53:09;1.30;;;1.30;;
10469;SDS011;5282;47.052;15.458;2023-07-30T12:55:37;1.17;;;1.17;;
10469;SDS011;5282;47.052;15.458;2023-07-30T12:58:05;1.20;;;1.20;;
10469;SDS011;5282;47.052;15.458;2023-07-30T13:00:33;1.25;;;1.25;;
10469;SDS011;5282;47.052;15.458;2023-07-30T13:03:01;1.08;;;1.08;;
10469;SDS011;5282;47.052;15.458;2023-07-30T13:05:30;1.38;;;1.38;;
10469;SDS011;5282;47.052;15.458;2023-07-30T13:07:58;1.23;;;1.23;;
10469;SDS011;5282;47.052;15.458;2023-07-30T13:10:27;1.48;;;1.48;;
10469;SDS011;5282;47.052;15.458;2023-07-30T13:13:00;1.33;;;1.33;;
10469;SDS011;5282;47.052;15.458;2023-07-30T13:15:29;1.38;;;1.38;;
10469;SDS011;5282;47.052;15.458;2023-07-30T13:17:58;1.25;;;1.25;;
10469;SDS011;5282;47.052;15.458;2023-07-30T13:20:29;1.38;;;1.38;;
10469;SDS011;5282;47.052;15.458;2023-07-30T13:22:58;1.20;;;1.20;;
10469;SDS011;5282;47.052;15.458;2023-07-30T13:25:27;1.40;;;1.40;;
10469;SDS011;5282;47.052;15.458;2023-07-30T13:27:57;1.25;;;1.25;;
10469;SDS011;5282;47.052;15.458;2023-07-30T13:30:27;1.27;;;1.27;;
10469;SDS011;5282;47.052;15.458;2023-07-30T13:32:56;1.17;;;1.17;;
10469;SDS011;5282;47.052;15.458;2023-07-30T13:35:25;1.55;;;1.52;;
10469;SDS011;5282;47.052;15.458;2023-07-30T13:37:53;1.42;;;1.38;;
10469;SDS011;5282;47.052;15.458;2023-07-30T13:40:22;1.23;;;1.23;;
10469;SDS011;5282;47.052;15.458;2023-07-30T13:42:50;1.30;;;1.30;;
10469;SDS011;5282;47.052;15.458;2023-07-30T13:45:22;1.00;;;1.00;;
10469;SDS011;5282;47.052;15.458;2023-07-30T13:47:50;1.20;;;1.20;;
10469;SDS011;5282;47.052;15.458;2023-07-30T13:50:19;1.38;;;1.38;;
10469;SDS011;5282;47.052;15.458;2023-07-30T13:52:47;1.20;;;1.20;;
10469;SDS011;5282;47.052;15.458;2023-07-30T13:55:17;1.27;;;1.27;;
10469;SDS011;5282;47.052;15.458;2023-07-30T13:57:45;1.30;;;1.30;;
10469;SDS011;5282;47.052;15.458;2023-07-30T14:00:14;1.20;;;1.20;;
10469;SDS011;5282;47.052;15.458;2023-07-30T14:02:44;1.30;;;1.30;;
10469;SDS011;5282;47.052;15.458;2023-07-30T14:05:13;1.20;;;1.20;;
10469;SDS011;5282;47.052;15.458;2023-07-30T14:07:42;1.40;;;1.40;;
10469;SDS011;5282;47.052;15.458;2023-07-30T14:10:11;1.60;;;1.60;;
10469;SDS011;5282;47.052;15.458;2023-07-30T14:12:40;1.58;;;1.30;;
10469;SDS011;5282;47.052;15.458;2023-07-30T14:15:08;1.40;;;1.40;;
10469;SDS011;5282;47.052;15.458;2023-07-30T14:17:37;1.35;;;1.35;;
10469;SDS011;5282;47.052;15.458;2023-07-30T14:20:08;1.30;;;1.30;;
10469;SDS011;5282;47.052;15.458;2023-07-30T14:22:36;1.30;;;1.30;;
10469;SDS011;5282;47.052;15.458;2023-07-30T14:25:04;1.40;;;1.40;;
10469;SDS011;5282;47.052;15.458;2023-07-30T14:27:32;1.60;;;1.60;;
10469;SDS011;5282;47.052;15.458;2023-07-30T14:30:00;1.30;;;1.30;;
10469;SDS011;5282;47.052;15.458;2023-07-30T14:32:27;2.08;;;2.08;;
10469;SDS011;5282;47.052;15.458;2023-07-30T14:34:54;1.58;;;1.58;;
10469;SDS011;5282;47.052;15.458;2023-07-30T14:37:23;1.90;;;1.90;;
10469;SDS011;5282;47.052;15.458;2023-07-30T14:39:50;1.40;;;1.40;;
10469;SDS011;5282;47.052;15.458;2023-07-30T14:42:18;1.27;;;1.27;;
10469;SDS011;5282;47.052;15.458;2023-07-30T14:44:45;1.25;;;1.25;;
10469;SDS011;5282;47.052;15.458;2023-07-30T14:47:12;1.40;;;1.38;;
10469;SDS011;5282;47.052;15.458;2023-07-30T14:49:40;1.35;;;1.35;;
10469;SDS011;5282;47.052;15.458;2023-07-30T14:52:08;1.20;;;1.20;;